sensor_id;sensor_type;location;lat;lon;timestamp;P1;durP1;ratioP1;P2;durP2;ratioP2
35326;SDS011;21436;52.348;20.928;2023-03-23T00:02:16;61.30;;;31.83;;
35326;SDS011;21436;52.348;20.928;2023-03-23T00:04:43;60.85;;;32.08;;
35326;SDS011;21436;52.348;20.928;2023-03-23T00:07:10;55.22;;;29.85;;
35326;SDS011;21436;52.348;20.928;2023-03-23T00:09:38;56.60;;;30.45;;
35326;SDS011;21436;52.348;20.928;2023-03-23T00:12:08;57.15;;;31.75;;
35326;SDS011;21436;52.348;20.928;2023-03-23T00:14:34;55.95;;;30.25;;
35326;SDS011;21436;52.348;20.928;2023-03-23T00:17:09;57.70;;;31.02;;
35326;SDS011;21436;52.348;20.928;2023-03-23T00:19:37;52.42;;;29.38;;
35326;SDS011;21436;52.348;20.928;2023-03-23T00:22:15;55.35;;;30.58;;
35326;SDS011;21436;52.348;20.928;2023-03-23T00:24:47;51.72;;;28.35;;
35326;SDS011;21436;52.348;20.928;2023-03-23T00:27:17;60.25;;;30.98;;
35326;SDS011;21436;52.348;20.928;2023-03-23T00:29:43;56.22;;;29.65;;
35326;SDS011;21436;52.348;20.928;2023-03-23T00:32:13;62.42;;;32.40;;
35326;SDS011;21436;52.348;20.928;2023-03-23T00:34:40;61.88;;;32.15;;
35326;SDS011;21436;52.348;20.928;2023-03-23T00:37:09;47.13;;;27.75;;
35326;SDS011;21436;52.348;20.928;2023-03-23T00:39:37;56.78;;;28.90;;
35326;SDS011;21436;52.348;20.928;2023-03-23T00:42:04;55.15;;;30.83;;
35326;SDS011;21436;52.348;20.928;2023-03-23T00:44:31;50.85;;;29.10;;
35326;SDS011;21436;52.348;20.928;2023-03-23T00:47:01;61.08;;;33.33;;
35326;SDS011;21436;52.348;20.928;2023-03-23T00:49:30;54.60;;;29.60;;
35326;SDS011;21436;52.348;20.928;2023-03-23T00:52:01;56.17;;;30.17;;
35326;SDS011;21436;52.348;20.928;2023-03-23T00:54:28;56.47;;;30.23;;
35326;SDS011;21436;52.348;20.928;2023-03-23T00:56:56;48.85;;;27.48;;
35326;SDS011;21436;52.348;20.928;2023-03-23T00:59:22;50.53;;;27.92;;
35326;SDS011;21436;52.348;20.928;2023-03-23T01:01:50;51.50;;;28.95;;
35326;SDS011;21436;52.348;20.928;2023-03-23T01:04:17;50.33;;;28.10;;
35326;SDS011;21436;52.348;20.928;2023-03-23T01:06:44;55.97;;;28.58;;
35326;SDS011;21436;52.348;20.928;2023-03-23T01:09:16;50.47;;;27.63;;
35326;SDS011;21436;52.348;20.928;2023-03-23T01:11:48;47.45;;;26.15;;
35326;SDS011;21436;52.348;20.928;2023-03-23T01:14:17;54.92;;;27.20;;
35326;SDS011;21436;52.348;20.928;2023-03-23T01:16:45;48.15;;;26.02;;
35326;SDS011;21436;52.348;20.928;2023-03-23T01:19:12;47.50;;;25.35;;
35326;SDS011;21436;52.348;20.928;2023-03-23T01:21:40;46.25;;;25.80;;
35326;SDS011;21436;52.348;20.928;2023-03-23T01:24:07;54.75;;;27.42;;
35326;SDS011;21436;52.348;20.928;2023-03-23T01:26:34;42.03;;;23.95;;
35326;SDS011;21436;52.348;20.928;2023-03-23T01:29:00;44.85;;;25.20;;
35326;SDS011;21436;52.348;20.928;2023-03-23T01:31:27;46.63;;;25.17;;
35326;SDS011;21436;52.348;20.928;2023-03-23T01:33:54;44.08;;;23.70;;
35326;SDS011;21436;52.348;20.928;2023-03-23T01:36:24;43.67;;;25.08;;
35326;SDS011;21436;52.348;20.928;2023-03-23T01:39:00;42.60;;;24.23;;
35326;SDS011;21436;52.348;20.928;2023-03-23T01:41:30;42.00;;;23.63;;
35326;SDS011;21436;52.348;20.928;2023-03-23T01:44:01;45.67;;;23.42;;
35326;SDS011;21436;52.348;20.928;2023-03-23T01:46:43;46.35;;;24.30;;
35326;SDS011;21436;52.348;20.928;2023-03-23T01:49:14;46.20;;;24.63;;
35326;SDS011;21436;52.348;20.928;2023-03-23T01:51:49;47.85;;;24.90;;
35326;SDS011;21436;52.348;20.928;2023-03-23T01:54:23;45.40;;;22.83;;
35326;SDS011;21436;52.348;20.928;2023-03-23T01:56:55;39.85;;;22.38;;
35326;SDS011;21436;52.348;20.928;2023-03-23T01:59:24;45.10;;;24.80;;
35326;SDS011;21436;52.348;20.928;2023-03-23T02:02:12;41.97;;;23.17;;
35326;SDS011;21436;52.348;20.928;2023-03-23T02:04:41;46.72;;;23.48;;
35326;SDS011;21436;52.348;20.928;2023-03-23T02:07:08;43.35;;;23.75;;
35326;SDS011;21436;52.348;20.928;2023-03-23T02:09:36;42.42;;;23.50;;
35326;SDS011;21436;52.348;20.928;2023-03-23T02:12:03;42.80;;;22.85;;
35326;SDS011;21436;52.348;20.928;2023-03-23T02:14:31;37.97;;;21.55;;
35326;SDS011;21436;52.348;20.928;2023-03-23T02:17:06;47.78;;;22.70;;
35326;SDS011;21436;52.348;20.928;2023-03-23T02:22:46;43.30;;;22.63;;
35326;SDS011;21436;52.348;20.928;2023-03-23T02:28:21;39.85;;;21.65;;
35326;SDS011;21436;52.348;20.928;2023-03-23T02:31:05;41.85;;;22.33;;
35326;SDS011;21436;52.348;20.928;2023-03-23T02:39:12;43.03;;;23.20;;
35326;SDS011;21436;52.348;20.928;2023-03-23T02:41:57;38.92;;;21.02;;
35326;SDS011;21436;52.348;20.928;2023-03-23T02:44:28;42.70;;;21.95;;
35326;SDS011;21436;52.348;20.928;2023-03-23T02:46:57;41.60;;;22.27;;
35326;SDS011;21436;52.348;20.928;2023-03-23T02:49:25;37.30;;;21.20;;
35326;SDS011;21436;52.348;20.928;2023-03-23T02:51:54;40.47;;;21.92;;
35326;SDS011;21436;52.348;20.928;2023-03-23T02:54:23;40.88;;;21.27;;
35326;SDS011;21436;52.348;20.928;2023-03-23T02:56:52;37.22;;;21.08;;
35326;SDS011;21436;52.348;20.928;2023-03-23T02:59:26;38.42;;;21.38;;
35326;SDS011;21436;52.348;20.928;2023-03-23T03:10:22;38.15;;;20.50;;
35326;SDS011;21436;52.348;20.928;2023-03-23T03:16:06;41.80;;;21.45;;
35326;SDS011;21436;52.348;20.928;2023-03-23T03:18:44;41.90;;;21.30;;
35326;SDS011;21436;52.348;20.928;2023-03-23T03:21:15;44.90;;;21.10;;
35326;SDS011;21436;52.348;20.928;2023-03-23T03:23:47;42.45;;;21.25;;
35326;SDS011;21436;52.348;20.928;2023-03-23T03:26:16;38.42;;;21.02;;
35326;SDS011;21436;52.348;20.928;2023-03-23T03:28:53;42.63;;;21.42;;
35326;SDS011;21436;52.348;20.928;2023-03-23T03:31:26;41.65;;;21.50;;
35326;SDS011;21436;52.348;20.928;2023-03-23T03:33:55;38.63;;;21.55;;
35326;SDS011;21436;52.348;20.928;2023-03-23T03:36:24;42.65;;;21.05;;
35326;SDS011;21436;52.348;20.928;2023-03-23T03:38:53;37.65;;;21.42;;
35326;SDS011;21436;52.348;20.928;2023-03-23T03:41:24;37.05;;;20.55;;
35326;SDS011;21436;52.348;20.928;2023-03-23T03:43:50;36.20;;;20.65;;
35326;SDS011;21436;52.348;20.928;2023-03-23T03:46:17;41.83;;;20.48;;
35326;SDS011;21436;52.348;20.928;2023-03-23T03:48:44;42.30;;;22.20;;
35326;SDS011;21436;52.348;20.928;2023-03-23T03:51:11;37.90;;;20.55;;
35326;SDS011;21436;52.348;20.928;2023-03-23T03:53:44;36.58;;;21.35;;
35326;SDS011;21436;52.348;20.928;2023-03-23T03:56:12;41.25;;;21.40;;
35326;SDS011;21436;52.348;20.928;2023-03-23T03:58:46;37.92;;;21.20;;
35326;SDS011;21436;52.348;20.928;2023-03-23T04:01:23;41.25;;;22.15;;
35326;SDS011;21436;52.348;20.928;2023-03-23T04:03:50;35.47;;;20.92;;
35326;SDS011;21436;52.348;20.928;2023-03-23T04:06:26;41.22;;;20.92;;
35326;SDS011;21436;52.348;20.928;2023-03-23T04:08:55;37.28;;;20.77;;
35326;SDS011;21436;52.348;20.928;2023-03-23T04:11:23;38.67;;;19.92;;
35326;SDS011;21436;52.348;20.928;2023-03-23T04:13:50;39.08;;;20.45;;
35326;SDS011;21436;52.348;20.928;2023-03-23T04:16:26;41.30;;;21.13;;
35326;SDS011;21436;52.348;20.928;2023-03-23T04:18:56;39.53;;;20.50;;
35326;SDS011;21436;52.348;20.928;2023-03-23T04:21:25;35.38;;;20.92;;
35326;SDS011;21436;52.348;20.928;2023-03-23T04:23:55;41.97;;;20.65;;
35326;SDS011;21436;52.348;20.928;2023-03-23T04:26:27;37.80;;;21.52;;
35326;SDS011;21436;52.348;20.928;2023-03-23T04:29:03;41.67;;;22.00;;
35326;SDS011;21436;52.348;20.928;2023-03-23T04:31:35;44.00;;;21.23;;
35326;SDS011;21436;52.348;20.928;2023-03-23T04:34:13;39.78;;;20.58;;
35326;SDS011;21436;52.348;20.928;2023-03-23T04:36:46;37.42;;;20.10;;
35326;SDS011;21436;52.348;20.928;2023-03-23T04:39:17;39.20;;;22.17;;
35326;SDS011;21436;52.348;20.928;2023-03-23T04:41:45;38.58;;;20.92;;
35326;SDS011;21436;52.348;20.928;2023-03-23T04:44:26;42.25;;;20.98;;
35326;SDS011;21436;52.348;20.928;2023-03-23T04:47:02;38.50;;;21.20;;
35326;SDS011;21436;52.348;20.928;2023-03-23T04:49:33;37.45;;;20.20;;
35326;SDS011;21436;52.348;20.928;2023-03-23T04:52:14;40.10;;;20.77;;
35326;SDS011;21436;52.348;20.928;2023-03-23T04:54:43;36.60;;;20.73;;
35326;SDS011;21436;52.348;20.928;2023-03-23T04:57:11;37.80;;;21.10;;
35326;SDS011;21436;52.348;20.928;2023-03-23T04:59:44;38.90;;;21.52;;
35326;SDS011;21436;52.348;20.928;2023-03-23T05:02:19;38.75;;;21.00;;
35326;SDS011;21436;52.348;20.928;2023-03-23T05:04:48;38.13;;;19.73;;
35326;SDS011;21436;52.348;20.928;2023-03-23T05:07:20;33.50;;;18.92;;
35326;SDS011;21436;52.348;20.928;2023-03-23T05:09:48;38.78;;;19.00;;
35326;SDS011;21436;52.348;20.928;2023-03-23T05:12:20;38.10;;;18.98;;
35326;SDS011;21436;52.348;20.928;2023-03-23T05:14:52;35.88;;;19.02;;
35326;SDS011;21436;52.348;20.928;2023-03-23T05:17:21;37.00;;;19.63;;
35326;SDS011;21436;52.348;20.928;2023-03-23T05:19:52;35.20;;;19.27;;
35326;SDS011;21436;52.348;20.928;2023-03-23T05:22:38;38.47;;;20.48;;
35326;SDS011;21436;52.348;20.928;2023-03-23T05:25:07;32.45;;;17.73;;
35326;SDS011;21436;52.348;20.928;2023-03-23T05:27:42;32.88;;;18.15;;
35326;SDS011;21436;52.348;20.928;2023-03-23T05:30:19;37.20;;;17.80;;
35326;SDS011;21436;52.348;20.928;2023-03-23T05:32:48;34.88;;;19.08;;
35326;SDS011;21436;52.348;20.928;2023-03-23T05:35:31;33.92;;;19.00;;
35326;SDS011;21436;52.348;20.928;2023-03-23T05:38:00;33.25;;;18.17;;
35326;SDS011;21436;52.348;20.928;2023-03-23T05:40:29;38.42;;;18.80;;
35326;SDS011;21436;52.348;20.928;2023-03-23T05:43:02;39.08;;;17.65;;
35326;SDS011;21436;52.348;20.928;2023-03-23T05:45:44;32.78;;;18.45;;
35326;SDS011;21436;52.348;20.928;2023-03-23T05:48:11;33.63;;;18.80;;
35326;SDS011;21436;52.348;20.928;2023-03-23T05:50:39;29.17;;;17.85;;
35326;SDS011;21436;52.348;20.928;2023-03-23T05:53:06;28.65;;;17.15;;
35326;SDS011;21436;52.348;20.928;2023-03-23T05:55:36;34.35;;;17.60;;
35326;SDS011;21436;52.348;20.928;2023-03-23T05:58:19;28.55;;;16.80;;
35326;SDS011;21436;52.348;20.928;2023-03-23T06:00:47;28.60;;;16.58;;
35326;SDS011;21436;52.348;20.928;2023-03-23T06:03:26;34.80;;;17.75;;
35326;SDS011;21436;52.348;20.928;2023-03-23T06:06:13;38.45;;;17.33;;
35326;SDS011;21436;52.348;20.928;2023-03-23T06:08:51;36.95;;;17.23;;
35326;SDS011;21436;52.348;20.928;2023-03-23T06:11:25;31.55;;;16.70;;
35326;SDS011;21436;52.348;20.928;2023-03-23T06:14:11;33.80;;;17.23;;
35326;SDS011;21436;52.348;20.928;2023-03-23T06:16:39;33.88;;;16.95;;
35326;SDS011;21436;52.348;20.928;2023-03-23T06:19:08;27.55;;;16.58;;
35326;SDS011;21436;52.348;20.928;2023-03-23T06:21:43;30.05;;;16.20;;
35326;SDS011;21436;52.348;20.928;2023-03-23T06:24:30;29.17;;;16.73;;
35326;SDS011;21436;52.348;20.928;2023-03-23T06:26:58;30.40;;;15.30;;
35326;SDS011;21436;52.348;20.928;2023-03-23T06:29:26;29.90;;;16.00;;
35326;SDS011;21436;52.348;20.928;2023-03-23T06:31:56;27.67;;;15.65;;
35326;SDS011;21436;52.348;20.928;2023-03-23T06:34:27;30.50;;;16.30;;
35326;SDS011;21436;52.348;20.928;2023-03-23T06:37:12;28.40;;;15.57;;
35326;SDS011;21436;52.348;20.928;2023-03-23T06:39:48;34.25;;;16.60;;
35326;SDS011;21436;52.348;20.928;2023-03-23T06:42:27;26.10;;;14.23;;
35326;SDS011;21436;52.348;20.928;2023-03-23T06:45:14;26.75;;;14.55;;
35326;SDS011;21436;52.348;20.928;2023-03-23T06:47:43;26.75;;;14.65;;
35326;SDS011;21436;52.348;20.928;2023-03-23T06:50:12;27.42;;;13.85;;
35326;SDS011;21436;52.348;20.928;2023-03-23T06:52:40;24.55;;;14.77;;
35326;SDS011;21436;52.348;20.928;2023-03-23T06:55:07;24.75;;;14.57;;
35326;SDS011;21436;52.348;20.928;2023-03-23T06:57:34;25.58;;;13.40;;
35326;SDS011;21436;52.348;20.928;2023-03-23T07:00:02;20.70;;;12.55;;
35326;SDS011;21436;52.348;20.928;2023-03-23T07:02:42;22.23;;;14.43;;
35326;SDS011;21436;52.348;20.928;2023-03-23T07:05:10;23.60;;;12.38;;
35326;SDS011;21436;52.348;20.928;2023-03-23T07:07:38;19.83;;;12.27;;
35326;SDS011;21436;52.348;20.928;2023-03-23T07:10:19;23.80;;;12.07;;
35326;SDS011;21436;52.348;20.928;2023-03-23T07:12:46;17.70;;;11.02;;
35326;SDS011;21436;52.348;20.928;2023-03-23T07:15:13;24.50;;;12.40;;
35326;SDS011;21436;52.348;20.928;2023-03-23T07:17:45;25.63;;;11.95;;
35326;SDS011;21436;52.348;20.928;2023-03-23T07:20:19;22.83;;;11.90;;
35326;SDS011;21436;52.348;20.928;2023-03-23T07:22:47;19.45;;;11.10;;
35326;SDS011;21436;52.348;20.928;2023-03-23T07:25:39;21.50;;;11.48;;
35326;SDS011;21436;52.348;20.928;2023-03-23T07:28:09;21.92;;;10.35;;
35326;SDS011;21436;52.348;20.928;2023-03-23T07:30:37;17.80;;;10.60;;
35326;SDS011;21436;52.348;20.928;2023-03-23T07:33:05;17.42;;;10.35;;
35326;SDS011;21436;52.348;20.928;2023-03-23T07:35:33;19.67;;;9.93;;
35326;SDS011;21436;52.348;20.928;2023-03-23T07:38:06;16.02;;;9.60;;
35326;SDS011;21436;52.348;20.928;2023-03-23T07:40:35;21.63;;;9.82;;
35326;SDS011;21436;52.348;20.928;2023-03-23T07:43:12;21.67;;;10.63;;
35326;SDS011;21436;52.348;20.928;2023-03-23T07:45:57;16.83;;;9.18;;
35326;SDS011;21436;52.348;20.928;2023-03-23T07:48:32;18.42;;;9.23;;
35326;SDS011;21436;52.348;20.928;2023-03-23T07:50:59;16.17;;;9.55;;
35326;SDS011;21436;52.348;20.928;2023-03-23T07:53:29;17.25;;;9.25;;
35326;SDS011;21436;52.348;20.928;2023-03-23T07:56:15;15.32;;;8.32;;
35326;SDS011;21436;52.348;20.928;2023-03-23T07:58:53;17.55;;;8.85;;
35326;SDS011;21436;52.348;20.928;2023-03-23T08:01:21;16.42;;;8.23;;
35326;SDS011;21436;52.348;20.928;2023-03-23T08:04:09;15.88;;;8.82;;
35326;SDS011;21436;52.348;20.928;2023-03-23T08:07:07;22.42;;;8.38;;
35326;SDS011;21436;52.348;20.928;2023-03-23T08:09:54;12.10;;;7.63;;
35326;SDS011;21436;52.348;20.928;2023-03-23T08:12:24;12.90;;;7.57;;
35326;SDS011;21436;52.348;20.928;2023-03-23T08:15:10;18.02;;;7.28;;
35326;SDS011;21436;52.348;20.928;2023-03-23T08:17:48;12.73;;;6.97;;
35326;SDS011;21436;52.348;20.928;2023-03-23T08:20:37;14.95;;;7.63;;
35326;SDS011;21436;52.348;20.928;2023-03-23T08:23:33;12.75;;;7.10;;
35326;SDS011;21436;52.348;20.928;2023-03-23T08:26:20;19.42;;;8.20;;
35326;SDS011;21436;52.348;20.928;2023-03-23T08:28:48;15.60;;;7.72;;
35326;SDS011;21436;52.348;20.928;2023-03-23T08:31:41;16.08;;;7.22;;
35326;SDS011;21436;52.348;20.928;2023-03-23T08:34:27;15.25;;;7.72;;
35326;SDS011;21436;52.348;20.928;2023-03-23T08:37:24;13.63;;;7.75;;
35326;SDS011;21436;52.348;20.928;2023-03-23T08:40:18;15.27;;;7.50;;
35326;SDS011;21436;52.348;20.928;2023-03-23T08:42:57;15.80;;;7.85;;
35326;SDS011;21436;52.348;20.928;2023-03-23T08:45:43;13.68;;;7.43;;
35326;SDS011;21436;52.348;20.928;2023-03-23T08:48:10;13.15;;;7.35;;
35326;SDS011;21436;52.348;20.928;2023-03-23T08:50:56;18.42;;;8.50;;
35326;SDS011;21436;52.348;20.928;2023-03-23T08:53:45;15.55;;;8.30;;
35326;SDS011;21436;52.348;20.928;2023-03-23T08:56:31;12.98;;;8.32;;
35326;SDS011;21436;52.348;20.928;2023-03-23T08:59:17;13.02;;;7.00;;
35326;SDS011;21436;52.348;20.928;2023-03-23T09:02:03;12.48;;;7.28;;
35326;SDS011;21436;52.348;20.928;2023-03-23T09:04:49;12.40;;;6.68;;
35326;SDS011;21436;52.348;20.928;2023-03-23T09:07:26;14.73;;;7.28;;
35326;SDS011;21436;52.348;20.928;2023-03-23T09:09:52;17.88;;;7.43;;
35326;SDS011;21436;52.348;20.928;2023-03-23T09:12:19;13.43;;;7.45;;
35326;SDS011;21436;52.348;20.928;2023-03-23T09:14:46;13.63;;;7.57;;
35326;SDS011;21436;52.348;20.928;2023-03-23T09:17:13;15.13;;;7.40;;
35326;SDS011;21436;52.348;20.928;2023-03-23T09:19:40;13.60;;;7.25;;
35326;SDS011;21436;52.348;20.928;2023-03-23T09:22:08;15.23;;;7.20;;
35326;SDS011;21436;52.348;20.928;2023-03-23T09:24:34;12.77;;;6.85;;
35326;SDS011;21436;52.348;20.928;2023-03-23T09:27:02;14.57;;;6.72;;
35326;SDS011;21436;52.348;20.928;2023-03-23T09:29:30;11.60;;;6.55;;
35326;SDS011;21436;52.348;20.928;2023-03-23T09:31:57;13.23;;;7.25;;
35326;SDS011;21436;52.348;20.928;2023-03-23T09:34:24;14.88;;;7.00;;
35326;SDS011;21436;52.348;20.928;2023-03-23T09:36:51;13.93;;;6.65;;
35326;SDS011;21436;52.348;20.928;2023-03-23T09:39:18;11.15;;;5.63;;
35326;SDS011;21436;52.348;20.928;2023-03-23T09:47:43;11.45;;;6.20;;
35326;SDS011;21436;52.348;20.928;2023-03-23T09:50:14;14.87;;;5.87;;
35326;SDS011;21436;52.348;20.928;2023-03-23T09:52:54;12.57;;;6.40;;
35326;SDS011;21436;52.348;20.928;2023-03-23T09:55:23;11.25;;;5.80;;
35326;SDS011;21436;52.348;20.928;2023-03-23T10:00:50;10.95;;;5.82;;
35326;SDS011;21436;52.348;20.928;2023-03-23T10:03:39;9.32;;;5.65;;
35326;SDS011;21436;52.348;20.928;2023-03-23T10:06:09;9.32;;;5.43;;
35326;SDS011;21436;52.348;20.928;2023-03-23T10:08:49;13.65;;;5.55;;
35326;SDS011;21436;52.348;20.928;2023-03-23T10:14:07;10.48;;;5.35;;
35326;SDS011;21436;52.348;20.928;2023-03-23T10:16:40;9.60;;;4.35;;
35326;SDS011;21436;52.348;20.928;2023-03-23T10:21:39;12.82;;;5.80;;
35326;SDS011;21436;52.348;20.928;2023-03-23T10:24:10;5.57;;;3.90;;
35326;SDS011;21436;52.348;20.928;2023-03-23T10:26:49;12.32;;;11.20;;
35326;SDS011;21436;52.348;20.928;2023-03-23T10:29:42;8.63;;;5.63;;
35326;SDS011;21436;52.348;20.928;2023-03-23T10:32:16;14.18;;;9.63;;
35326;SDS011;21436;52.348;20.928;2023-03-23T10:35:03;11.27;;;3.78;;
35326;SDS011;21436;52.348;20.928;2023-03-23T10:37:34;5.80;;;3.50;;
35326;SDS011;21436;52.348;20.928;2023-03-23T10:40:05;8.43;;;3.80;;
35326;SDS011;21436;52.348;20.928;2023-03-23T10:42:37;10.25;;;3.95;;
35326;SDS011;21436;52.348;20.928;2023-03-23T10:45:13;7.50;;;4.13;;
35326;SDS011;21436;52.348;20.928;2023-03-23T10:47:46;6.50;;;4.07;;
35326;SDS011;21436;52.348;20.928;2023-03-23T10:50:17;5.80;;;3.80;;
35326;SDS011;21436;52.348;20.928;2023-03-23T10:52:48;6.13;;;3.10;;
35326;SDS011;21436;52.348;20.928;2023-03-23T10:55:18;6.43;;;3.33;;
35326;SDS011;21436;52.348;20.928;2023-03-23T11:00:40;6.03;;;3.17;;
35326;SDS011;21436;52.348;20.928;2023-03-23T11:05:43;11.60;;;4.30;;
35326;SDS011;21436;52.348;20.928;2023-03-23T11:08:13;7.75;;;4.25;;
35326;SDS011;21436;52.348;20.928;2023-03-23T11:10:56;5.43;;;4.20;;
35326;SDS011;21436;52.348;20.928;2023-03-23T11:13:31;7.32;;;4.32;;
35326;SDS011;21436;52.348;20.928;2023-03-23T11:15:59;7.53;;;3.88;;
35326;SDS011;21436;52.348;20.928;2023-03-23T11:18:34;6.78;;;3.72;;
35326;SDS011;21436;52.348;20.928;2023-03-23T11:21:07;8.10;;;3.47;;
35326;SDS011;21436;52.348;20.928;2023-03-23T11:23:39;5.30;;;3.20;;
35326;SDS011;21436;52.348;20.928;2023-03-23T11:26:15;6.05;;;3.03;;
35326;SDS011;21436;52.348;20.928;2023-03-23T11:28:50;9.18;;;3.47;;
35326;SDS011;21436;52.348;20.928;2023-03-23T11:31:39;22.30;;;4.10;;
35326;SDS011;21436;52.348;20.928;2023-03-23T11:36:47;4.57;;;2.70;;
35326;SDS011;21436;52.348;20.928;2023-03-23T11:39:53;6.65;;;3.80;;
35326;SDS011;21436;52.348;20.928;2023-03-23T11:42:44;6.18;;;3.50;;
35326;SDS011;21436;52.348;20.928;2023-03-23T11:58:18;9.38;;;3.80;;
35326;SDS011;21436;52.348;20.928;2023-03-23T12:06:08;5.15;;;2.53;;
35326;SDS011;21436;52.348;20.928;2023-03-23T12:16:51;4.00;;;2.80;;
35326;SDS011;21436;52.348;20.928;2023-03-23T12:19:26;5.00;;;2.65;;
35326;SDS011;21436;52.348;20.928;2023-03-23T12:22:22;6.07;;;3.75;;
35326;SDS011;21436;52.348;20.928;2023-03-23T12:31:03;5.05;;;3.08;;
35326;SDS011;21436;52.348;20.928;2023-03-23T12:42:11;3.65;;;2.85;;
35326;SDS011;21436;52.348;20.928;2023-03-23T12:44:52;3.78;;;2.72;;
35326;SDS011;21436;52.348;20.928;2023-03-23T12:48:22;5.15;;;3.03;;
35326;SDS011;21436;52.348;20.928;2023-03-23T12:53:22;6.05;;;3.70;;
35326;SDS011;21436;52.348;20.928;2023-03-23T12:58:37;5.57;;;3.08;;
35326;SDS011;21436;52.348;20.928;2023-03-23T13:01:14;7.60;;;3.83;;
35326;SDS011;21436;52.348;20.928;2023-03-23T13:06:41;6.75;;;3.58;;
35326;SDS011;21436;52.348;20.928;2023-03-23T13:09:32;7.53;;;3.80;;
35326;SDS011;21436;52.348;20.928;2023-03-23T13:12:04;8.65;;;4.35;;
35326;SDS011;21436;52.348;20.928;2023-03-23T13:14:38;6.75;;;3.45;;
35326;SDS011;21436;52.348;20.928;2023-03-23T13:17:16;6.03;;;3.80;;
35326;SDS011;21436;52.348;20.928;2023-03-23T13:25:07;5.53;;;3.50;;
35326;SDS011;21436;52.348;20.928;2023-03-23T13:27:40;6.90;;;2.80;;
35326;SDS011;21436;52.348;20.928;2023-03-23T13:30:27;4.85;;;3.10;;
35326;SDS011;21436;52.348;20.928;2023-03-23T13:33:02;5.20;;;2.20;;
35326;SDS011;21436;52.348;20.928;2023-03-23T13:35:34;6.32;;;2.78;;
35326;SDS011;21436;52.348;20.928;2023-03-23T13:40:42;3.78;;;2.40;;
35326;SDS011;21436;52.348;20.928;2023-03-23T13:43:10;6.22;;;2.50;;
35326;SDS011;21436;52.348;20.928;2023-03-23T13:45:44;8.23;;;3.90;;
35326;SDS011;21436;52.348;20.928;2023-03-23T13:50:51;6.53;;;2.80;;
35326;SDS011;21436;52.348;20.928;2023-03-23T13:53:27;6.20;;;3.35;;
35326;SDS011;21436;52.348;20.928;2023-03-23T14:05:07;9.77;;;3.10;;
35326;SDS011;21436;52.348;20.928;2023-03-23T14:10:35;12.88;;;3.60;;
35326;SDS011;21436;52.348;20.928;2023-03-23T14:13:06;4.20;;;2.88;;
35326;SDS011;21436;52.348;20.928;2023-03-23T14:18:50;6.25;;;2.85;;
35326;SDS011;21436;52.348;20.928;2023-03-23T14:24:03;4.60;;;3.40;;
35326;SDS011;21436;52.348;20.928;2023-03-23T14:26:33;6.07;;;3.30;;
35326;SDS011;21436;52.348;20.928;2023-03-23T14:29:03;5.50;;;3.38;;
35326;SDS011;21436;52.348;20.928;2023-03-23T14:31:31;4.47;;;3.10;;
35326;SDS011;21436;52.348;20.928;2023-03-23T14:34:01;8.10;;;4.25;;
35326;SDS011;21436;52.348;20.928;2023-03-23T14:36:30;8.98;;;4.88;;
35326;SDS011;21436;52.348;20.928;2023-03-23T14:41:32;9.57;;;4.25;;
35326;SDS011;21436;52.348;20.928;2023-03-23T14:44:02;8.07;;;4.40;;
35326;SDS011;21436;52.348;20.928;2023-03-23T14:46:30;6.45;;;4.63;;
35326;SDS011;21436;52.348;20.928;2023-03-23T14:48:59;12.60;;;4.70;;
35326;SDS011;21436;52.348;20.928;2023-03-23T14:51:28;8.18;;;5.07;;
35326;SDS011;21436;52.348;20.928;2023-03-23T14:53:54;9.50;;;4.75;;
35326;SDS011;21436;52.348;20.928;2023-03-23T14:56:22;7.88;;;4.70;;
35326;SDS011;21436;52.348;20.928;2023-03-23T14:58:50;9.80;;;4.90;;
35326;SDS011;21436;52.348;20.928;2023-03-23T15:01:24;10.35;;;4.78;;
35326;SDS011;21436;52.348;20.928;2023-03-23T15:03:59;7.63;;;4.45;;
35326;SDS011;21436;52.348;20.928;2023-03-23T15:06:37;9.68;;;4.03;;
35326;SDS011;21436;52.348;20.928;2023-03-23T15:09:13;8.25;;;4.20;;
35326;SDS011;21436;52.348;20.928;2023-03-23T15:11:49;11.35;;;4.15;;
35326;SDS011;21436;52.348;20.928;2023-03-23T15:14:22;10.35;;;4.30;;
35326;SDS011;21436;52.348;20.928;2023-03-23T15:17:09;6.70;;;3.95;;
35326;SDS011;21436;52.348;20.928;2023-03-23T15:19:43;10.20;;;3.83;;
35326;SDS011;21436;52.348;20.928;2023-03-23T15:22:21;6.97;;;3.63;;
35326;SDS011;21436;52.348;20.928;2023-03-23T15:24:54;6.32;;;4.03;;
35326;SDS011;21436;52.348;20.928;2023-03-23T15:27:31;6.65;;;3.30;;
35326;SDS011;21436;52.348;20.928;2023-03-23T15:30:00;5.25;;;3.80;;
35326;SDS011;21436;52.348;20.928;2023-03-23T15:32:42;5.30;;;3.60;;
35326;SDS011;21436;52.348;20.928;2023-03-23T15:35:12;5.45;;;3.60;;
35326;SDS011;21436;52.348;20.928;2023-03-23T15:38:15;8.43;;;4.15;;
35326;SDS011;21436;52.348;20.928;2023-03-23T15:40:53;7.25;;;4.05;;
35326;SDS011;21436;52.348;20.928;2023-03-23T15:43:26;5.85;;;3.50;;
35326;SDS011;21436;52.348;20.928;2023-03-23T15:45:59;5.60;;;3.50;;
35326;SDS011;21436;52.348;20.928;2023-03-23T15:48:46;10.00;;;3.70;;
35326;SDS011;21436;52.348;20.928;2023-03-23T15:51:17;5.18;;;3.40;;
35326;SDS011;21436;52.348;20.928;2023-03-23T15:53:46;11.10;;;4.93;;
35326;SDS011;21436;52.348;20.928;2023-03-23T15:56:13;5.45;;;3.72;;
35326;SDS011;21436;52.348;20.928;2023-03-23T15:58:40;23.70;;;4.75;;
35326;SDS011;21436;52.348;20.928;2023-03-23T16:01:12;8.30;;;3.55;;
35326;SDS011;21436;52.348;20.928;2023-03-23T16:03:44;6.22;;;3.90;;
35326;SDS011;21436;52.348;20.928;2023-03-23T16:06:19;9.30;;;4.15;;
35326;SDS011;21436;52.348;20.928;2023-03-23T16:11:25;9.68;;;3.65;;
35326;SDS011;21436;52.348;20.928;2023-03-23T16:13:54;5.78;;;3.53;;
35326;SDS011;21436;52.348;20.928;2023-03-23T16:16:42;10.27;;;4.47;;
35326;SDS011;21436;52.348;20.928;2023-03-23T16:19:16;7.43;;;3.33;;
35326;SDS011;21436;52.348;20.928;2023-03-23T16:21:46;7.45;;;3.70;;
35326;SDS011;21436;52.348;20.928;2023-03-23T16:24:14;9.50;;;3.88;;
35326;SDS011;21436;52.348;20.928;2023-03-23T16:26:43;9.70;;;3.90;;
35326;SDS011;21436;52.348;20.928;2023-03-23T16:29:11;10.18;;;3.90;;
35326;SDS011;21436;52.348;20.928;2023-03-23T16:32:00;5.32;;;3.67;;
35326;SDS011;21436;52.348;20.928;2023-03-23T16:34:28;6.25;;;3.90;;
35326;SDS011;21436;52.348;20.928;2023-03-23T16:36:59;7.40;;;4.05;;
35326;SDS011;21436;52.348;20.928;2023-03-23T16:39:28;7.57;;;3.55;;
35326;SDS011;21436;52.348;20.928;2023-03-23T16:41:56;8.88;;;3.63;;
35326;SDS011;21436;52.348;20.928;2023-03-23T16:44:25;6.82;;;4.38;;
35326;SDS011;21436;52.348;20.928;2023-03-23T16:46:53;10.35;;;4.85;;
35326;SDS011;21436;52.348;20.928;2023-03-23T16:49:22;8.45;;;4.15;;
35326;SDS011;21436;52.348;20.928;2023-03-23T16:51:50;10.95;;;4.78;;
35326;SDS011;21436;52.348;20.928;2023-03-23T16:54:19;5.70;;;3.40;;
35326;SDS011;21436;52.348;20.928;2023-03-23T16:56:47;14.95;;;5.70;;
35326;SDS011;21436;52.348;20.928;2023-03-23T16:59:15;6.60;;;3.50;;
35326;SDS011;21436;52.348;20.928;2023-03-23T17:01:43;11.15;;;3.28;;
35326;SDS011;21436;52.348;20.928;2023-03-23T17:04:12;4.70;;;3.35;;